首页
METAR-TAF:

METAR-TAF

机场 :

Stanly County Airport

Albemarle, 北卡罗来纳州, 美国

纬度: 35-25-00N, 经度: 080-09-03W, 海拔: 186米

当前天气观测

该预报发布于21分钟前的05:35 UTC
静风
温度 9°C
湿度 100%
气压 1017 hPa
能見度: 16.1公里
散云层高于7000英尺

METAR: KVUJ 230535Z AUTO 00000KT 10SM SCT070 09/09 A3002 RMK AO2 T00920085

时间: 01:56 (05:56 UTC)


TAF: 丢失

超过4000个机场的气象观测和天气预报(METAR&TAF报告)。

可查询的气象台以黄色和红色小点在地图上表示。

将鼠标移到小点上方,可查看气象台名称。

然后点击查看天气观测和预报。

如需切换地图:点击带黑十字的绿色按钮放大地图;点击带横线的绿色按钮缩小地图;或者点击绿色箭头查看邻近地区的地图。


METAR-TAF: